Time;durP1;ratioP1;P1;durP2;ratioP2;P2;SDS_P1;SDS_P2;PMS_P1;PMS_P2;Temp;Humidity;BMP_temperature;BMP_pressure;BME280_temperature;BME280_humidity;BME280_pressure;Samples;Min_cycle;Max_cycle;Signal;HPM_P1;HPM_P2
2023/05/23 00:01:44;;;;;;;;;;;15.30;99.90;;;;;;5069438;28;20020;-78
2023/05/23 00:04:15;;;;;;;4.35;2.03;;;15.30;99.90;;;;;;5069044;28;20304;-78
2023/05/23 00:06:45;;;;;;;8.05;1.95;;;15.30;99.90;;;;;;5069603;28;20060;-77
2023/05/23 00:09:14;;;;;;;9.48;2.33;;;15.30;99.90;;;;;;5069308;28;20102;-77
2023/05/23 00:11:44;;;;;;;7.82;2.15;;;15.20;99.90;;;;;;5069132;28;20526;-78
2023/05/23 00:14:13;;;;;;;7.38;2.08;;;15.30;99.90;;;;;;5068994;28;20017;-80
2023/05/23 00:16:41;;;;;;;4.38;2.17;;;15.20;99.90;;;;;;5068880;28;20045;-78
2023/05/23 00:19:07;;;;;;;11.50;2.30;;;15.20;99.90;;;;;;5068986;28;20027;-77
2023/05/23 00:21:33;;;;;;;9.65;2.38;;;15.20;99.90;;;;;;5069567;28;20032;-78
2023/05/23 00:23:59;;;;;;;;;;;15.20;99.90;;;;;;5069771;28;20028;-78
2023/05/23 00:26:28;;;;;;;10.73;2.17;;;15.20;99.90;;;;;;5069014;28;19904;-77
2023/05/23 00:28:55;;;;;;;7.25;1.95;;;15.20;99.90;;;;;;5068694;28;20027;-78
2023/05/23 00:31:21;;;;;;;4.38;1.70;;;15.10;99.90;;;;;;5068715;28;20032;-77
2023/05/23 00:33:47;;;;;;;7.85;2.85;;;15.10;99.90;;;;;;5068577;28;20089;-78
2023/05/23 00:36:12;;;;;;;;;;;15.10;99.90;;;;;;5069037;28;20370;-78
2023/05/23 00:38:38;;;;;;;16.85;2.28;;;15.10;99.90;;;;;;5068595;28;20533;-78
2023/05/23 00:41:04;;;;;;;;;;;15.00;99.90;;;;;;5068911;28;20029;-77
2023/05/23 00:43:30;;;;;;;6.32;2.28;;;15.00;99.90;;;;;;5068547;28;19908;-77
2023/05/23 00:45:56;;;;;;;;;;;15.00;99.90;;;;;;5067658;28;20036;-76
2023/05/23 00:48:23;;;;;;;5.80;2.50;;;15.20;99.90;;;;;;5068389;28;19943;-77
2023/05/23 00:50:49;;;;;;;4.25;2.45;;;15.10;99.90;;;;;;5068660;28;20111;-78
2023/05/23 00:53:16;;;;;;;13.70;2.15;;;15.20;99.90;;;;;;5067488;28;20032;-77
2023/05/23 00:55:43;;;;;;;7.85;2.70;;;15.20;99.90;;;;;;5069299;28;20118;-77
2023/05/23 00:58:09;;;;;;;6.30;2.25;;;15.20;99.90;;;;;;5068392;28;20074;-77
2023/05/23 01:00:37;;;;;;;3.70;1.98;;;15.30;99.90;;;;;;5068356;28;20530;-77
2023/05/23 01:03:03;;;;;;;5.60;2.08;;;15.20;99.90;;;;;;5068078;28;20489;-78
2023/05/23 01:05:29;;;;;;;5.60;2.67;;;15.20;99.90;;;;;;5068541;28;20017;-77
2023/05/23 01:07:55;;;;;;;;;;;15.20;99.90;;;;;;5068635;28;20024;-76
2023/05/23 01:10:25;;;;;;;6.70;2.55;;;15.20;99.90;;;;;;5068216;28;19920;-77
2023/05/23 01:13:18;;;;;;;4.88;2.20;;;15.20;99.90;;;;;;5068240;28;20459;-76
2023/05/23 01:16:06;;;;;;;9.15;2.92;;;15.20;99.90;;;;;;5068232;28;20028;-77
2023/05/23 01:18:50;;;;;;;4.13;1.92;;;15.20;99.90;;;;;;5066881;28;20043;-78
2023/05/23 01:21:17;;;;;;;3.65;2.20;;;15.20;99.90;;;;;;5068268;28;20024;-77
2023/05/23 01:24:02;;;;;;;6.57;2.40;;;15.20;99.90;;;;;;5068160;28;20031;-76
2023/05/23 01:26:31;;;;;;;5.03;2.30;;;15.10;99.90;;;;;;5066968;28;20021;-77
2023/05/23 01:29:09;;;;;;;4.72;2.13;;;15.10;99.90;;;;;;5068069;28;20020;-78
2023/05/23 01:31:39;;;;;;;9.02;2.63;;;15.10;99.90;;;;;;5068195;28;20052;-77
2023/05/23 01:34:06;;;;;;;4.90;2.40;;;15.00;99.90;;;;;;5066810;28;20420;-77
2023/05/23 01:36:34;;;;;;;6.95;2.60;;;15.00;99.90;;;;;;5066814;28;20017;-77
2023/05/23 01:39:00;;;;;;;10.52;2.55;;;14.90;99.90;;;;;;5068028;28;20021;-77
2023/05/23 01:41:27;;;;;;;4.45;2.38;;;14.90;99.90;;;;;;5068099;28;20056;-77
2023/05/23 01:43:53;;;;;;;8.05;2.88;;;14.90;99.90;;;;;;5066691;28;20565;-77
2023/05/23 01:46:21;;;;;;;7.22;2.67;;;14.90;99.90;;;;;;5067888;28;20051;-77
2023/05/23 01:48:47;;;;;;;8.43;2.47;;;15.00;99.90;;;;;;5067735;28;20485;-77
2023/05/23 01:51:14;;;;;;;7.50;2.85;;;15.00;99.90;;;;;;5068026;28;20079;-78
2023/05/23 01:53:40;;;;;;;10.75;2.80;;;15.10;99.90;;;;;;5067814;28;20035;-77
2023/05/23 01:56:06;;;;;;;;;;;15.20;99.90;;;;;;5068175;28;20131;-77
2023/05/23 01:58:32;;;;;;;8.63;3.28;;;15.30;99.90;;;;;;5067903;28;19912;-78
2023/05/23 02:00:58;;;;;;;;;;;15.30;99.90;;;;;;5068302;28;20128;-78
2023/05/23 02:03:24;;;;;;;6.20;2.65;;;15.30;99.90;;;;;;5067850;28;19999;-78
2023/05/23 02:05:49;;;;;;;11.00;2.22;;;15.30;99.90;;;;;;5068064;28;20031;-78
2023/05/23 02:08:15;;;;;;;;;;;15.30;99.90;;;;;;5068344;28;20029;-78
2023/05/23 02:10:40;;;;;;;10.88;2.42;;;15.30;99.90;;;;;;5067909;28;19913;-78
2023/05/23 02:13:06;;;;;;;;;;;15.20;99.90;;;;;;5068048;28;20024;-78
2023/05/23 02:15:32;;;;;;;6.88;2.20;;;15.10;99.90;;;;;;5067718;28;20311;-78
2023/05/23 02:17:57;;;;;;;6.75;2.60;;;15.00;99.90;;;;;;5067768;28;20040;-78
2023/05/23 02:20:23;;;;;;;4.13;2.13;;;15.00;99.90;;;;;;5068155;28;20028;-77
2023/05/23 02:22:49;;;;;;;6.82;2.58;;;14.90;99.90;;;;;;5071135;28;20041;-76
2023/05/23 02:25:14;;;;;;;;;;;14.90;99.90;;;;;;5071582;28;20021;-76
2023/05/23 02:27:40;;;;;;;8.43;3.20;;;14.80;99.90;;;;;;5071338;28;19912;-78
2023/05/23 02:30:06;;;;;;;5.90;2.67;;;14.70;99.90;;;;;;5071026;28;20059;-78
2023/05/23 02:32:36;;;;;;;6.72;3.38;;;14.70;99.90;;;;;;5071115;28;20124;-77
2023/05/23 02:35:03;;;;;;;7.90;2.67;;;14.70;99.90;;;;;;5070970;28;20066;-78
2023/05/23 02:37:28;;;;;;;6.40;3.10;;;14.70;99.90;;;;;;5070685;28;20028;-77
2023/05/23 02:39:55;;;;;;;;;;;14.60;99.90;;;;;;5070189;28;20044;-77
2023/05/23 02:42:20;;;;;;;14.43;3.45;;;14.60;99.90;;;;;;5069917;28;19912;-77
2023/05/23 02:44:46;;;;;;;;;;;14.60;99.90;;;;;;5069832;28;20127;-78
2023/05/23 02:47:11;;;;;;;7.07;2.80;;;14.60;99.90;;;;;;5070771;28;19908;-77
2023/05/23 02:49:37;;;;;;;;;;;14.60;99.90;;;;;;5071057;28;20067;-78
2023/05/23 02:52:02;;;;;;;6.00;2.42;;;14.70;99.90;;;;;;5070634;28;19908;-77
2023/05/23 02:54:28;;;;;;;8.35;3.15;;;14.70;99.90;;;;;;5069427;28;20074;-78
2023/05/23 02:56:54;;;;;;;7.35;2.78;;;14.70;99.90;;;;;;5070234;28;20462;-79
2023/05/23 02:59:21;;;;;;;6.35;2.95;;;14.60;99.90;;;;;;5069559;28;20035;-77
2023/05/23 03:01:46;;;;;;;5.70;3.00;;;14.70;99.90;;;;;;5070358;28;20020;-78
2023/05/23 03:04:12;;;;;;;;;;;14.60;99.90;;;;;;5070895;28;20072;-77
2023/05/23 03:06:38;;;;;;;7.85;3.35;;;14.70;99.90;;;;;;5070550;28;20400;-79
2023/05/23 03:09:04;;;;;;;8.65;3.08;;;14.60;99.90;;;;;;5068880;28;20403;-78
2023/05/23 03:11:29;;;;;;;;;;;14.60;99.90;;;;;;5069712;28;20035;-78
2023/05/23 03:13:55;;;;;;;6.05;3.15;;;14.60;99.90;;;;;;5069000;28;20351;-78
2023/05/23 03:16:22;;;;;;;14.98;4.38;;;14.60;99.90;;;;;;5070194;28;20039;-78
2023/05/23 03:18:48;;;;;;;6.45;3.35;;;14.70;99.90;;;;;;5068862;28;20508;-78
2023/05/23 03:21:13;;;;;;;;;;;14.70;99.90;;;;;;5070584;28;20035;-78
2023/05/23 03:23:39;;;;;;;9.90;3.78;;;14.70;99.90;;;;;;5070125;28;19909;-77
2023/05/23 03:26:05;;;;;;;8.60;2.80;;;14.70;99.90;;;;;;5068744;28;20020;-78
2023/05/23 03:28:31;;;;;;;11.43;3.83;;;14.80;99.90;;;;;;5068888;28;20040;-78
2023/05/23 03:30:57;;;;;;;;;;;14.90;99.90;;;;;;5070283;28;20028;-78
2023/05/23 03:33:23;;;;;;;7.53;3.22;;;15.00;99.90;;;;;;5069932;28;19961;-78
2023/05/23 03:35:49;;;;;;;10.38;3.22;;;15.10;99.90;;;;;;5070255;28;20032;-78
2023/05/23 03:38:15;;;;;;;10.20;2.90;;;15.20;99.90;;;;;;5070259;28;20044;-78
2023/05/23 03:40:40;;;;;;;;;;;15.30;99.90;;;;;;5068962;28;20024;-78
2023/05/23 03:43:07;;;;;;;12.98;3.72;;;15.30;99.90;;;;;;5068332;28;20377;-78
2023/05/23 03:45:33;;;;;;;6.50;3.22;;;15.40;99.90;;;;;;5069260;28;20028;-77
2023/05/23 03:47:59;;;;;;;10.90;3.10;;;15.40;99.90;;;;;;5069535;28;20033;-78
2023/05/23 03:50:25;;;;;;;9.45;3.85;;;15.60;99.90;;;;;;5069294;28;20730;-77
2023/05/23 03:52:52;;;;;;;10.15;3.33;;;15.70;99.90;;;;;;5069581;28;20047;-78
2023/05/23 03:55:21;;;;;;;13.10;3.22;;;15.80;99.90;;;;;;5069546;28;20024;-79
2023/05/23 03:57:53;;;;;;;9.32;3.20;;;16.00;99.90;;;;;;5069448;28;20039;-77
2023/05/23 04:00:19;;;;;;;8.40;3.40;;;16.10;99.90;;;;;;5069460;28;20032;-78
2023/05/23 04:02:45;;;;;;;6.90;2.90;;;16.20;99.90;;;;;;5068061;28;20035;-78
2023/05/23 04:05:12;;;;;;;8.27;3.08;;;16.30;99.90;;;;;;5069432;28;20063;-75
2023/05/23 04:07:38;;;;;;;10.60;2.95;;;16.50;99.90;;;;;;5067715;28;20033;-79
2023/05/23 04:10:05;;;;;;;10.63;2.88;;;16.70;99.90;;;;;;5069011;28;20099;-77
2023/05/23 04:12:30;;;;;;;14.23;3.10;;;16.80;99.90;;;;;;5069412;28;20463;-79
2023/05/23 04:14:56;;;;;;;7.55;3.47;;;17.00;99.90;;;;;;5069139;28;20021;-80
2023/05/23 04:17:22;;;;;;;7.82;2.40;;;17.10;99.90;;;;;;5068822;28;20560;-78
2023/05/23 04:19:49;;;;;;;11.35;3.10;;;17.40;99.90;;;;;;5068933;28;20034;-77
2023/05/23 04:22:15;;;;;;;5.68;2.38;;;17.70;99.90;;;;;;5067602;28;20064;-79
2023/05/23 04:24:41;;;;;;;6.30;2.83;;;18.10;99.90;;;;;;5068867;28;20099;-78
2023/05/23 04:27:07;;;;;;;5.50;2.65;;;18.30;99.90;;;;;;5068779;28;20035;-78
2023/05/23 04:29:34;;;;;;;6.38;2.65;;;18.40;99.90;;;;;;5068482;28;20504;-79
2023/05/23 04:32:01;;;;;;;9.43;2.38;;;18.50;99.90;;;;;;5068741;28;20025;-78
2023/05/23 04:34:27;;;;;;;15.93;3.22;;;18.70;99.90;;;;;;5068359;28;20020;-77
2023/05/23 04:36:53;;;;;;;9.48;2.80;;;18.80;99.90;;;;;;5068433;28;20036;-79
2023/05/23 04:39:19;;;;;;;7.78;3.10;;;18.90;99.90;;;;;;5068917;28;20848;-78
2023/05/23 04:41:45;;;;;;;5.22;2.42;;;18.90;99.90;;;;;;5068593;28;20024;-79
2023/05/23 04:44:11;;;;;;;10.52;3.20;;;19.00;99.90;;;;;;5067926;28;20028;-77
2023/05/23 04:46:40;;;;;;;8.63;2.38;;;19.10;99.90;;;;;;5068474;28;20386;-77
2023/05/23 04:49:07;;;;;;;8.65;2.72;;;19.20;99.90;;;;;;5067006;28;20021;-77
2023/05/23 04:51:33;;;;;;;10.38;3.08;;;19.30;99.90;;;;;;5068262;28;20063;-76
2023/05/23 04:54:00;;;;;;;13.82;3.50;;;19.40;99.90;;;;;;5068444;28;20437;-77
2023/05/23 04:56:27;;;;;;;5.70;2.90;;;19.60;99.90;;;;;;5068051;28;20080;-77
2023/05/23 04:58:53;;;;;;;8.63;2.85;;;19.70;99.90;;;;;;5067060;28;20040;-75
2023/05/23 05:01:19;;;;;;;7.15;2.70;;;19.90;99.90;;;;;;5068153;28;20078;-75
2023/05/23 05:03:46;;;;;;;10.55;3.88;;;20.10;99.90;;;;;;5067488;28;20131;-78
2023/05/23 05:06:13;;;;;;;8.30;2.55;;;20.30;99.90;;;;;;5067200;28;20035;-76
2023/05/23 05:08:39;;;;;;;7.43;2.65;;;20.40;99.90;;;;;;5067664;28;20402;-77
2023/05/23 05:11:05;;;;;;;12.07;3.65;;;20.50;99.90;;;;;;5068347;28;20389;-77
2023/05/23 05:13:31;;;;;;;9.25;3.33;;;20.80;99.90;;;;;;5068231;28;20036;-76
2023/05/23 05:15:57;;;;;;;5.47;2.45;;;21.10;99.90;;;;;;5066863;28;20024;-78
2023/05/23 05:18:25;;;;;;;8.77;2.90;;;21.30;99.90;;;;;;5068284;28;20111;-77
2023/05/23 05:20:50;;;;;;;13.50;3.42;;;21.50;99.90;;;;;;5068115;28;20024;-77
2023/05/23 05:23:16;;;;;;;9.85;3.17;;;21.70;98.80;;;;;;5068244;28;20036;-76
2023/05/23 05:25:42;;;;;;;8.25;2.70;;;22.00;97.10;;;;;;5067904;28;20032;-76
2023/05/23 05:28:07;;;;;;;13.32;3.83;;;22.10;91.80;;;;;;5068341;28;20083;-77
2023/05/23 05:30:36;;;;;;;8.48;2.58;;;22.30;82.00;;;;;;5068112;28;20049;-77
2023/05/23 05:33:03;;;;;;;8.48;2.97;;;22.50;82.10;;;;;;5066399;28;20028;-76
2023/05/23 05:35:32;;;;;;;7.72;2.50;;;22.60;80.60;;;;;;5066623;28;20493;-75
2023/05/23 05:37:58;;;;;;;6.60;2.67;;;22.80;73.70;;;;;;5067945;28;20123;-76
2023/05/23 05:40:24;;;;;;;13.88;2.33;;;23.00;68.40;;;;;;5068070;28;20449;-76
2023/05/23 05:42:50;;;;;;;8.63;2.63;;;23.00;68.10;;;;;;5067875;28;20039;-77
2023/05/23 05:45:16;;;;;;;7.55;2.13;;;23.20;66.50;;;;;;5067903;28;20419;-77
2023/05/23 05:47:41;;;;;;;9.35;3.13;;;23.50;66.10;;;;;;5067960;28;20036;-76
2023/05/23 05:50:10;;;;;;;9.57;2.60;;;24.20;65.40;;;;;;5067829;28;20020;-77
2023/05/23 05:52:38;;;;;;;6.00;2.45;;;25.20;63.50;;;;;;5067617;28;20028;-77
2023/05/23 05:55:10;;;;;;;7.65;2.50;;;26.00;61.40;;;;;;5067538;28;20447;-78
2023/05/23 05:57:40;;;;;;;16.35;2.67;;;27.00;58.60;;;;;;5070946;28;20048;-77
2023/05/23 06:00:17;;;;;;;7.28;2.22;;;27.90;56.10;;;;;;5071128;28;20444;-78
2023/05/23 06:02:47;;;;;;;9.38;2.38;;;28.30;53.10;;;;;;5070866;28;20051;-77
2023/05/23 06:05:15;;;;;;;6.90;2.38;;;28.80;51.20;;;;;;5071291;28;20039;-77
2023/05/23 06:07:46;;;;;;;9.00;3.03;;;29.40;49.40;;;;;;5069673;28;20409;-79
2023/05/23 06:10:12;;;;;;;13.32;2.88;;;30.20;48.50;;;;;;5069323;28;20094;-77
2023/05/23 06:12:38;;;;;;;10.00;3.28;;;30.80;47.10;;;;;;5070874;28;20420;-76
2023/05/23 06:15:05;;;;;;;8.32;2.38;;;31.40;44.90;;;;;;5071410;28;20020;-75
2023/05/23 06:17:31;;;;;;;6.85;2.50;;;31.80;43.00;;;;;;5071127;28;20037;-76
2023/05/23 06:19:56;;;;;;;21.08;3.60;;;32.10;42.20;;;;;;5071088;28;20025;-76
2023/05/23 06:22:22;;;;;;;8.80;2.53;;;32.40;41.40;;;;;;5071145;28;20039;-76
2023/05/23 06:24:48;;;;;;;9.18;2.55;;;32.60;41.30;;;;;;5070912;28;20037;-77
2023/05/23 06:27:13;;;;;;;11.00;2.55;;;32.90;41.20;;;;;;5071203;28;20428;-76
2023/05/23 06:29:39;;;;;;;17.38;3.08;;;33.00;39.50;;;;;;5070994;28;20024;-77
2023/05/23 06:32:05;;;;;;;7.40;2.38;;;32.90;39.60;;;;;;5071018;28;20111;-77
2023/05/23 06:34:31;;;;;;;14.68;3.33;;;33.20;39.30;;;;;;5070986;28;20044;-76
2023/05/23 06:36:56;;;;;;;14.52;2.47;;;33.30;38.80;;;;;;5070745;28;20028;-76
2023/05/23 06:39:22;;;;;;;5.15;2.67;;;33.30;38.80;;;;;;5069635;28;20087;-78
2023/05/23 06:41:48;;;;;;;6.75;2.50;;;32.90;37.90;;;;;;5069926;28;20439;-76
2023/05/23 06:44:14;;;;;;;6.20;2.20;;;32.80;38.00;;;;;;5070937;28;20493;-77
2023/05/23 06:46:46;;;;;;;8.57;2.95;;;32.60;38.60;;;;;;5071226;28;20051;-77
2023/05/23 06:49:12;;;;;;;14.48;2.10;;;32.50;38.40;;;;;;5070764;28;20037;-76
2023/05/23 06:51:37;;;;;;;5.38;2.17;;;32.40;37.80;;;;;;5070438;28;20033;-77
2023/05/23 06:54:03;;;;;;;7.13;2.53;;;32.50;38.10;;;;;;5070488;28;20056;-76
2023/05/23 06:56:29;;;;;;;4.38;2.45;;;32.70;37.60;;;;;;5070222;28;20045;-78
2023/05/23 06:58:54;;;;;;;10.00;2.20;;;32.50;38.90;;;;;;5070132;28;20627;-77
2023/05/23 07:01:20;;;;;;;5.60;2.22;;;32.80;38.00;;;;;;5070166;28;20514;-76
2023/05/23 07:03:46;;;;;;;9.15;1.85;;;32.90;37.30;;;;;;5070318;28;20536;-77
2023/05/23 07:06:11;;;;;;;6.03;2.35;;;33.00;37.80;;;;;;5069738;28;20070;-76
2023/05/23 07:08:37;;;;;;;4.53;2.10;;;33.00;37.20;;;;;;5070274;28;20099;-77
2023/05/23 07:11:04;;;;;;;7.65;2.83;;;33.10;36.40;;;;;;5070082;28;20113;-77
2023/05/23 07:13:29;;;;;;;8.10;2.60;;;32.70;36.60;;;;;;5070104;28;20036;-76
2023/05/23 07:15:55;;;;;;;5.85;2.67;;;32.20;38.60;;;;;;5070043;28;20033;-77
2023/05/23 07:18:23;;;;;;;5.70;2.75;;;32.60;37.70;;;;;;5070027;28;20054;-77
2023/05/23 07:20:48;;;;;;;8.80;2.45;;;32.40;38.20;;;;;;5069968;28;20021;-78
2023/05/23 07:23:14;;;;;;;7.97;2.22;;;32.60;37.80;;;;;;5068592;28;20514;-77
2023/05/23 07:25:41;;;;;;;7.25;2.17;;;32.40;37.30;;;;;;5070012;28;20027;-77
2023/05/23 07:28:10;;;;;;;8.25;3.00;;;32.30;38.50;;;;;;5069809;28;20029;-78
2023/05/23 07:30:36;;;;;;;5.03;2.17;;;32.60;38.10;;;;;;5069752;28;20031;-77
2023/05/23 07:33:01;;;;;;;8.85;3.00;;;32.80;38.70;;;;;;5069565;28;20029;-77
2023/05/23 07:35:27;;;;;;;8.98;2.70;;;33.30;38.70;;;;;;5068289;28;20439;-76
2023/05/23 07:37:53;;;;;;;10.68;2.40;;;33.60;37.40;;;;;;5069658;28;20048;-77
2023/05/23 07:40:19;;;;;;;6.30;2.40;;;33.60;36.60;;;;;;5069426;28;20027;-77
2023/05/23 07:42:45;;;;;;;3.80;2.00;;;33.80;36.90;;;;;;5067863;28;20116;-77
2023/05/23 07:45:11;;;;;;;6.07;2.08;;;34.10;36.20;;;;;;5070196;28;20111;-77
2023/05/23 07:47:37;;;;;;;8.80;2.22;;;34.00;36.40;;;;;;5069414;28;20021;-77
2023/05/23 07:50:03;;;;;;;9.05;2.10;;;34.50;35.20;;;;;;5069422;28;20031;-77
2023/05/23 07:52:30;;;;;;;5.57;1.95;;;34.30;35.70;;;;;;5070453;28;20024;-77
2023/05/23 07:54:56;;;;;;;11.48;2.92;;;34.20;34.80;;;;;;5069309;28;20396;-76
2023/05/23 07:57:23;;;;;;;6.65;2.53;;;34.10;34.50;;;;;;5069111;28;20048;-77
2023/05/23 07:59:50;;;;;;;9.57;2.63;;;33.50;34.90;;;;;;5068003;28;20090;-77
2023/05/23 08:02:16;;;;;;;7.00;2.33;;;33.00;34.80;;;;;;5069119;28;20020;-76
2023/05/23 08:04:41;;;;;;;4.13;1.90;;;32.90;35.20;;;;;;5069120;28;20036;-77
2023/05/23 08:07:08;;;;;;;5.60;2.72;;;33.10;36.90;;;;;;5069351;28;20571;-76
2023/05/23 08:09:34;;;;;;;12.90;2.45;;;33.50;37.50;;;;;;5069098;28;20496;-76
2023/05/23 08:12:00;;;;;;;7.30;2.40;;;33.80;36.70;;;;;;5069178;28;20048;-76
2023/05/23 08:14:26;;;;;;;11.45;2.65;;;34.40;35.70;;;;;;5068910;28;20136;-77
2023/05/23 08:16:52;;;;;;;11.48;2.28;;;34.10;35.20;;;;;;5068574;28;20556;-77
2023/05/23 08:19:18;;;;;;;4.68;2.28;;;34.00;34.60;;;;;;5068179;28;20074;-76
2023/05/23 08:21:44;;;;;;;12.50;3.08;;;33.90;35.50;;;;;;5068530;28;20076;-76
2023/05/23 08:24:11;;;;;;;13.32;2.47;;;34.00;35.70;;;;;;5068585;28;20028;-76
2023/05/23 08:26:38;;;;;;;5.68;2.10;;;34.50;35.00;;;;;;5068820;28;20025;-75
2023/05/23 08:29:04;;;;;;;14.95;3.35;;;34.60;33.60;;;;;;5068418;28;20825;-76
2023/05/23 08:31:31;;;;;;;9.88;2.83;;;33.90;33.90;;;;;;5068634;28;20025;-76
2023/05/23 08:33:57;;;;;;;8.15;2.65;;;33.60;35.70;;;;;;5068765;28;20032;-76
2023/05/23 08:36:23;;;;;;;25.58;3.78;;;33.60;34.70;;;;;;5068558;28;20044;-75
2023/05/23 08:38:50;;;;;;;12.40;3.10;;;33.00;36.00;;;;;;5068302;28;20515;-76
2023/05/23 08:41:22;;;;;;;13.15;4.22;;;33.40;35.50;;;;;;5068551;28;20043;-77
2023/05/23 08:43:48;;;;;;;6.10;2.45;;;32.90;36.50;;;;;;5068566;28;20024;-75
2023/05/23 08:46:14;;;;;;;15.93;2.70;;;33.20;37.40;;;;;;5068433;28;20104;-76
2023/05/23 08:48:41;;;;;;;9.25;2.50;;;33.50;37.10;;;;;;5068478;28;20132;-76
2023/05/23 08:51:12;;;;;;;4.38;2.30;;;33.80;37.20;;;;;;5068514;28;20055;-76
2023/05/23 08:53:45;;;;;;;4.45;2.53;;;34.30;35.90;;;;;;5068275;28;20074;-75
2023/05/23 08:56:12;;;;;;;9.20;2.53;;;34.50;36.80;;;;;;5066820;28;20040;-76
2023/05/23 08:58:40;;;;;;;9.15;2.20;;;34.70;34.60;;;;;;5066975;28;20047;-76
2023/05/23 09:01:08;;;;;;;14.65;2.72;;;34.50;35.10;;;;;;5066900;28;20025;-77
2023/05/23 09:03:38;;;;;;;6.55;2.33;;;34.20;36.10;;;;;;5068268;28;20029;-76
2023/05/23 09:06:08;;;;;;;13.93;3.25;;;34.20;35.90;;;;;;5068358;28;20527;-76
2023/05/23 09:08:34;;;;;;;3.90;2.30;;;34.20;35.50;;;;;;5068194;28;20119;-76
2023/05/23 09:11:01;;;;;;;9.95;2.65;;;34.30;35.30;;;;;;5066729;28;20115;-75
2023/05/23 09:13:30;;;;;;;4.75;2.63;;;34.00;37.00;;;;;;5068378;28;20024;-76
2023/05/23 09:16:06;;;;;;;7.10;2.60;;;34.00;36.40;;;;;;5068202;28;20107;-78
2023/05/23 09:18:37;;;;;;;4.68;2.03;;;34.10;37.40;;;;;;5068099;28;20059;-76
2023/05/23 09:21:04;;;;;;;3.70;2.10;;;34.30;36.40;;;;;;5067832;28;20537;-76
2023/05/23 09:23:31;;;;;;;7.05;2.28;;;34.50;36.30;;;;;;5068066;28;20484;-76
2023/05/23 09:26:04;;;;;;;3.22;2.45;;;34.20;36.60;;;;;;5068081;28;20027;-76
2023/05/23 09:28:31;;;;;;;12.27;1.95;;;34.30;37.60;;;;;;5067967;28;20056;-76
2023/05/23 09:31:01;;;;;;;8.00;2.30;;;34.60;36.90;;;;;;5070926;28;20113;-76
2023/05/23 09:33:39;;;;;;;17.33;2.58;;;34.70;37.20;;;;;;5071999;28;20036;-76
2023/05/23 09:36:08;;;;;;;9.15;2.30;;;35.00;36.20;;;;;;5072026;28;20025;-76
2023/05/23 09:38:38;;;;;;;4.70;2.40;;;34.90;35.50;;;;;;5070700;28;20040;-75
2023/05/23 09:41:04;;;;;;;4.93;2.05;;;35.10;35.90;;;;;;5071689;28;20021;-75
2023/05/23 09:43:29;;;;;;;11.63;2.50;;;35.10;35.70;;;;;;5071875;28;20024;-76
2023/05/23 09:46:00;;;;;;;4.72;2.08;;;34.90;35.70;;;;;;5071867;28;20030;-75
2023/05/23 09:48:32;;;;;;;6.55;2.75;;;35.00;38.40;;;;;;5071708;28;20111;-77
2023/05/23 09:50:58;;;;;;;4.63;2.47;;;35.00;37.40;;;;;;5071500;28;20082;-76
2023/05/23 09:53:24;;;;;;;9.90;3.10;;;34.80;37.70;;;;;;5071594;28;20032;-75
2023/05/23 09:55:54;;;;;;;3.40;2.13;;;34.90;37.50;;;;;;5071419;28;20420;-76
2023/05/23 09:58:22;;;;;;;16.08;2.65;;;34.80;37.20;;;;;;5070507;28;20037;-76
2023/05/23 10:00:53;;;;;;;7.35;2.65;;;34.70;37.90;;;;;;5071610;28;20029;-75
2023/05/23 10:03:23;;;;;;;9.82;3.03;;;34.30;37.20;;;;;;5071821;28;20075;-74
2023/05/23 10:05:52;;;;;;;9.13;3.20;;;33.40;38.20;;;;;;5070090;28;20366;-75
2023/05/23 10:08:37;;;;;;;6.65;2.50;;;32.90;40.10;;;;;;5071714;28;20381;-75
2023/05/23 10:11:29;;;;;;;7.00;2.50;;;32.50;41.20;;;;;;5071128;28;20449;-74
2023/05/23 10:13:57;;;;;;;9.15;2.40;;;32.30;41.50;;;;;;5070171;28;20114;-75
2023/05/23 10:16:45;;;;;;;9.38;2.40;;;32.00;41.70;;;;;;5071140;28;20031;-74
2023/05/23 10:19:21;;;;;;;3.92;2.33;;;31.80;43.20;;;;;;5071054;28;20539;-77
2023/05/23 10:21:50;;;;;;;3.97;1.92;;;31.70;43.30;;;;;;5070954;28;20086;-77
2023/05/23 10:24:16;;;;;;;7.25;2.72;;;31.50;43.10;;;;;;5070838;28;20524;-78
2023/05/23 10:26:43;;;;;;;7.68;2.42;;;31.30;42.80;;;;;;5070098;28;20036;-77
2023/05/23 10:29:09;;;;;;;14.18;2.53;;;31.30;43.60;;;;;;5069636;28;20024;-76
2023/05/23 10:31:35;;;;;;;8.38;2.30;;;31.30;44.70;;;;;;5070847;28;20679;-77
2023/05/23 10:34:09;;;;;;;6.43;2.70;;;31.20;43.10;;;;;;5069457;28;20124;-77
2023/05/23 10:36:47;;;;;;;6.70;2.47;;;31.20;44.20;;;;;;5070852;28;20678;-77
2023/05/23 10:39:33;;;;;;;4.05;2.17;;;31.30;46.00;;;;;;5070857;28;20039;-77
2023/05/23 10:42:00;;;;;;;;;;;31.30;44.20;;;;;;5070239;28;20024;-77
2023/05/23 10:44:29;;;;;;;11.68;2.28;;;31.20;44.80;;;;;;5070597;28;20361;-77
2023/05/23 10:46:59;;;;;;;16.80;3.38;;;31.10;45.10;;;;;;5070911;28;20463;-78
2023/05/23 10:49:41;;;;;;;8.43;2.28;;;31.00;44.50;;;;;;5070366;28;20470;-78
2023/05/23 10:52:09;;;;;;;4.70;2.13;;;31.20;44.40;;;;;;5070494;28;20027;-77
2023/05/23 10:54:49;;;;;;;5.43;1.85;;;31.10;43.90;;;;;;5070539;28;20109;-76
2023/05/23 10:57:34;;;;;;;9.63;2.78;;;31.20;45.50;;;;;;5070132;28;20110;-77
2023/05/23 11:00:00;;;;;;;6.10;2.40;;;31.20;46.20;;;;;;5070138;28;20123;-77
2023/05/23 11:02:27;;;;;;;6.28;2.63;;;31.10;45.90;;;;;;5070329;28;20107;-77
2023/05/23 11:05:15;;;;;;;10.07;2.60;;;30.80;45.80;;;;;;5070218;28;20012;-77
2023/05/23 11:07:41;;;;;;;6.15;2.55;;;30.60;46.40;;;;;;5070335;28;20575;-78
2023/05/23 11:10:12;;;;;;;8.52;2.75;;;30.50;45.10;;;;;;5070297;28;20608;-76
2023/05/23 11:12:41;;;;;;;6.38;2.33;;;30.20;45.40;;;;;;5070278;28;20169;-76
2023/05/23 11:15:25;;;;;;;3.95;2.22;;;30.10;47.20;;;;;;5070115;28;20111;-77
2023/05/23 11:17:55;;;;;;;4.65;2.25;;;30.00;48.30;;;;;;5068595;28;20470;-77
2023/05/23 11:20:26;;;;;;;6.45;2.58;;;30.10;46.70;;;;;;5070308;28;20032;-76
2023/05/23 11:22:59;;;;;;;5.82;2.28;;;30.20;46.70;;;;;;5069852;28;20802;-77
2023/05/23 11:25:55;;;;;;;8.50;2.70;;;30.30;45.50;;;;;;5069561;28;20199;-77
2023/05/23 11:28:21;;;;;;;4.68;2.50;;;30.20;47.30;;;;;;5068199;28;20528;-78
2023/05/23 11:30:48;;;;;;;5.18;2.30;;;30.20;46.50;;;;;;5069588;28;20028;-76
2023/05/23 11:33:15;;;;;;;7.63;2.38;;;30.20;47.80;;;;;;5070260;28;20056;-77
2023/05/23 11:35:46;;;;;;;6.38;2.10;;;30.30;47.50;;;;;;5069501;28;20662;-77
2023/05/23 11:38:13;;;;;;;6.75;2.25;;;30.50;47.20;;;;;;5069258;28;20516;-78
2023/05/23 11:40:41;;;;;;;5.43;2.10;;;30.40;45.90;;;;;;5069397;28;20021;-78
2023/05/23 11:43:08;;;;;;;9.05;2.53;;;30.50;47.10;;;;;;5069527;28;20024;-77
2023/05/23 11:45:37;;;;;;;6.00;2.78;;;30.40;44.90;;;;;;5069360;28;20021;-78
2023/05/23 11:48:10;;;;;;;7.95;2.28;;;30.30;45.90;;;;;;5069335;28;20085;-77
2023/05/23 11:50:53;;;;;;;4.80;2.00;;;30.30;48.50;;;;;;5069391;28;20024;-75
2023/05/23 11:53:20;;;;;;;6.43;2.50;;;30.30;47.70;;;;;;5069032;28;20501;-74
2023/05/23 11:55:53;;;;;;;5.95;2.22;;;30.30;47.70;;;;;;5067839;28;20040;-74
2023/05/23 11:58:21;;;;;;;8.98;2.65;;;30.40;47.10;;;;;;5067534;28;20468;-77
2023/05/23 12:00:46;;;;;;;5.72;2.38;;;30.40;45.00;;;;;;5068868;28;20048;-77
2023/05/23 12:03:12;;;;;;;3.30;2.13;;;30.30;44.60;;;;;;5069045;28;20028;-76
2023/05/23 12:05:38;;;;;;;8.52;2.28;;;30.10;44.50;;;;;;5067615;28;20766;-77
2023/05/23 12:08:04;;;;;;;2.95;2.10;;;29.90;45.50;;;;;;5069164;28;20548;-77
2023/05/23 12:10:29;;;;;;;5.53;2.20;;;29.90;45.50;;;;;;5069207;28;20025;-77
2023/05/23 12:12:55;;;;;;;5.80;2.70;;;30.00;46.40;;;;;;5068898;28;20343;-76
2023/05/23 12:15:28;;;;;;;3.90;2.30;;;29.90;46.90;;;;;;5068992;28;20039;-77
2023/05/23 12:17:55;;;;;;;6.25;2.00;;;29.90;47.80;;;;;;5067595;28;20055;-78
2023/05/23 12:20:21;;;;;;;7.65;2.22;;;29.90;46.10;;;;;;5068758;28;20025;-75
2023/05/23 12:22:47;;;;;;;12.57;1.90;;;30.10;46.90;;;;;;5068767;28;20074;-77
2023/05/23 12:25:13;;;;;;;9.77;2.42;;;30.40;46.70;;;;;;5068760;28;20107;-77
2023/05/23 12:27:42;;;;;;;6.70;2.13;;;30.40;45.40;;;;;;5068545;28;20147;-77
2023/05/23 12:30:14;;;;;;;15.00;2.65;;;30.30;46.70;;;;;;5068801;28;20111;-76
2023/05/23 12:32:42;;;;;;;5.57;2.10;;;30.40;46.60;;;;;;5066970;28;20401;-76
2023/05/23 12:35:13;;;;;;;4.00;2.13;;;30.50;44.70;;;;;;5068507;28;20032;-78
2023/05/23 12:37:45;;;;;;;5.30;1.63;;;30.60;45.10;;;;;;5068321;28;20036;-76
2023/05/23 12:40:20;;;;;;;7.47;2.17;;;30.70;45.20;;;;;;5068667;28;20088;-76
2023/05/23 12:42:56;;;;;;;8.63;2.60;;;30.80;44.60;;;;;;5068286;28;20503;-76
2023/05/23 12:45:32;;;;;;;8.45;2.17;;;30.70;43.70;;;;;;5068324;28;20071;-77
2023/05/23 12:47:58;;;;;;;9.77;2.97;;;30.50;44.10;;;;;;5068206;28;20085;-76
2023/05/23 12:50:24;;;;;;;5.45;2.00;;;30.30;44.90;;;;;;5068348;28;20031;-77
2023/05/23 12:52:51;;;;;;;9.50;2.17;;;30.30;44.80;;;;;;5065835;28;20029;-77
2023/05/23 12:55:17;;;;;;;3.67;1.75;;;30.30;45.20;;;;;;5066026;28;20066;-77